Metar z pełnej godziny Komunikat METAR ze strony awiacja.imgw.pl Metar G00 EPWA METAR EPWA 172100Z 14002KT CAVOK 08/06 Q1021 NOSIG=